sensor_id;sensor_type;location;lat;lon;timestamp;temperature;humidity
50570;DHT22;36525;49.398;7.614;2022-09-01T00:02:29;15.80;99.90
50570;DHT22;36525;49.398;7.614;2022-09-01T00:04:56;15.80;99.90
50570;DHT22;36525;49.398;7.614;2022-09-01T00:07:26;15.80;99.90
50570;DHT22;36525;49.398;7.614;2022-09-01T00:09:57;15.80;99.90
50570;DHT22;36525;49.398;7.614;2022-09-01T00:12:26;15.80;99.90
50570;DHT22;36525;49.398;7.614;2022-09-01T00:14:53;15.80;99.90
50570;DHT22;36525;49.398;7.614;2022-09-01T00:17:21;15.80;99.90
50570;DHT22;36525;49.398;7.614;2022-09-01T00:19:48;15.80;99.90
50570;DHT22;36525;49.398;7.614;2022-09-01T00:22:15;15.70;99.90
50570;DHT22;36525;49.398;7.614;2022-09-01T00:24:42;15.60;99.90
50570;DHT22;36525;49.398;7.614;2022-09-01T00:27:09;15.50;99.90
50570;DHT22;36525;49.398;7.614;2022-09-01T00:29:36;15.50;99.90
50570;DHT22;36525;49.398;7.614;2022-09-01T00:32:09;15.40;99.90
50570;DHT22;36525;49.398;7.614;2022-09-01T00:34:36;15.40;99.90
50570;DHT22;36525;49.398;7.614;2022-09-01T00:37:03;15.40;99.90
50570;DHT22;36525;49.398;7.614;2022-09-01T00:39:30;15.40;99.90
50570;DHT22;36525;49.398;7.614;2022-09-01T00:41:57;15.30;99.90
50570;DHT22;36525;49.398;7.614;2022-09-01T00:44:24;15.20;99.90
50570;DHT22;36525;49.398;7.614;2022-09-01T00:46:57;15.10;99.90
50570;DHT22;36525;49.398;7.614;2022-09-01T00:49:27;15.10;99.90
50570;DHT22;36525;49.398;7.614;2022-09-01T00:52:13;15.10;99.90
50570;DHT22;36525;49.398;7.614;2022-09-01T00:54:46;15.00;99.90
50570;DHT22;36525;49.398;7.614;2022-09-01T00:57:15;15.00;99.90
50570;DHT22;36525;49.398;7.614;2022-09-01T00:59:52;15.00;99.90
50570;DHT22;36525;49.398;7.614;2022-09-01T01:02:23;15.00;99.90
50570;DHT22;36525;49.398;7.614;2022-09-01T01:04:50;14.90;99.90
50570;DHT22;36525;49.398;7.614;2022-09-01T01:07:19;14.80;99.90
50570;DHT22;36525;49.398;7.614;2022-09-01T01:09:49;14.80;99.90
50570;DHT22;36525;49.398;7.614;2022-09-01T01:12:16;14.80;99.90
50570;DHT22;36525;49.398;7.614;2022-09-01T01:14:48;14.70;99.90
50570;DHT22;36525;49.398;7.614;2022-09-01T01:17:20;14.80;99.90
50570;DHT22;36525;49.398;7.614;2022-09-01T01:19:51;14.70;99.90
50570;DHT22;36525;49.398;7.614;2022-09-01T01:22:59;14.70;99.90
50570;DHT22;36525;49.398;7.614;2022-09-01T01:31:05;14.70;99.90
50570;DHT22;36525;49.398;7.614;2022-09-01T01:36:11;14.60;99.90
50570;DHT22;36525;49.398;7.614;2022-09-01T01:38:45;14.60;99.90
50570;DHT22;36525;49.398;7.614;2022-09-01T01:41:15;14.60;99.90
50570;DHT22;36525;49.398;7.614;2022-09-01T01:43:45;14.60;99.90
50570;DHT22;36525;49.398;7.614;2022-09-01T01:46:14;14.50;99.90
50570;DHT22;36525;49.398;7.614;2022-09-01T01:48:46;14.50;99.90
50570;DHT22;36525;49.398;7.614;2022-09-01T01:51:13;14.40;99.90
50570;DHT22;36525;49.398;7.614;2022-09-01T01:53:46;14.40;99.90
50570;DHT22;36525;49.398;7.614;2022-09-01T01:56:18;14.30;99.90
50570;DHT22;36525;49.398;7.614;2022-09-01T01:58:45;14.20;99.90
50570;DHT22;36525;49.398;7.614;2022-09-01T02:01:12;14.20;99.90
50570;DHT22;36525;49.398;7.614;2022-09-01T02:03:40;14.10;99.90
50570;DHT22;36525;49.398;7.614;2022-09-01T02:06:08;14.00;99.90
50570;DHT22;36525;49.398;7.614;2022-09-01T02:08:38;14.00;99.90
50570;DHT22;36525;49.398;7.614;2022-09-01T02:11:07;13.90;99.90
50570;DHT22;36525;49.398;7.614;2022-09-01T02:13:34;13.80;99.90
50570;DHT22;36525;49.398;7.614;2022-09-01T02:16:05;13.80;99.90
50570;DHT22;36525;49.398;7.614;2022-09-01T02:18:44;13.70;99.90
50570;DHT22;36525;49.398;7.614;2022-09-01T02:21:16;13.70;99.90
50570;DHT22;36525;49.398;7.614;2022-09-01T02:23:49;13.60;99.90
50570;DHT22;36525;49.398;7.614;2022-09-01T02:26:36;13.60;99.90
50570;DHT22;36525;49.398;7.614;2022-09-01T02:29:10;13.50;99.90
50570;DHT22;36525;49.398;7.614;2022-09-01T02:31:50;13.40;99.90
50570;DHT22;36525;49.398;7.614;2022-09-01T02:34:21;13.30;99.90
50570;DHT22;36525;49.398;7.614;2022-09-01T02:36:52;13.30;99.90
50570;DHT22;36525;49.398;7.614;2022-09-01T02:39:30;13.20;99.90
50570;DHT22;36525;49.398;7.614;2022-09-01T02:41:59;13.20;99.90
50570;DHT22;36525;49.398;7.614;2022-09-01T02:44:27;13.10;99.90
50570;DHT22;36525;49.398;7.614;2022-09-01T02:46:57;13.10;99.90
50570;DHT22;36525;49.398;7.614;2022-09-01T02:49:25;13.00;99.90
50570;DHT22;36525;49.398;7.614;2022-09-01T02:51:57;13.00;99.90
50570;DHT22;36525;49.398;7.614;2022-09-01T02:54:29;13.00;99.90
50570;DHT22;36525;49.398;7.614;2022-09-01T02:56:57;13.00;99.90
50570;DHT22;36525;49.398;7.614;2022-09-01T02:59:26;12.90;99.90
50570;DHT22;36525;49.398;7.614;2022-09-01T03:01:54;12.90;99.90
50570;DHT22;36525;49.398;7.614;2022-09-01T03:04:23;12.80;99.90
50570;DHT22;36525;49.398;7.614;2022-09-01T03:06:52;12.70;99.90
50570;DHT22;36525;49.398;7.614;2022-09-01T03:09:20;12.70;99.90
50570;DHT22;36525;49.398;7.614;2022-09-01T03:11:50;12.80;99.90
50570;DHT22;36525;49.398;7.614;2022-09-01T03:14:19;12.80;99.90
50570;DHT22;36525;49.398;7.614;2022-09-01T03:16:47;12.80;99.90
50570;DHT22;36525;49.398;7.614;2022-09-01T03:19:14;12.80;99.90
50570;DHT22;36525;49.398;7.614;2022-09-01T03:26:43;12.80;99.90
50570;DHT22;36525;49.398;7.614;2022-09-01T03:29:16;12.70;99.90
50570;DHT22;36525;49.398;7.614;2022-09-01T03:31:44;12.70;99.90
50570;DHT22;36525;49.398;7.614;2022-09-01T03:34:11;12.70;99.90
50570;DHT22;36525;49.398;7.614;2022-09-01T03:36:38;12.80;99.90
50570;DHT22;36525;49.398;7.614;2022-09-01T03:39:06;12.90;99.90
50570;DHT22;36525;49.398;7.614;2022-09-01T03:41:42;12.90;99.90
50570;DHT22;36525;49.398;7.614;2022-09-01T03:44:12;12.90;99.90
50570;DHT22;36525;49.398;7.614;2022-09-01T03:46:41;12.80;99.90
50570;DHT22;36525;49.398;7.614;2022-09-01T03:49:09;12.70;99.90
50570;DHT22;36525;49.398;7.614;2022-09-01T03:51:42;12.70;99.90
50570;DHT22;36525;49.398;7.614;2022-09-01T03:54:11;12.70;99.90
50570;DHT22;36525;49.398;7.614;2022-09-01T03:56:39;12.60;99.90
50570;DHT22;36525;49.398;7.614;2022-09-01T03:59:07;12.60;99.90
50570;DHT22;36525;49.398;7.614;2022-09-01T04:01:34;12.60;99.90
50570;DHT22;36525;49.398;7.614;2022-09-01T04:04:10;12.50;99.90
50570;DHT22;36525;49.398;7.614;2022-09-01T04:06:42;12.50;99.90
50570;DHT22;36525;49.398;7.614;2022-09-01T04:09:10;12.60;99.90
50570;DHT22;36525;49.398;7.614;2022-09-01T04:11:37;12.60;99.90
50570;DHT22;36525;49.398;7.614;2022-09-01T04:14:11;12.60;99.90
50570;DHT22;36525;49.398;7.614;2022-09-01T04:16:38;12.60;99.90
50570;DHT22;36525;49.398;7.614;2022-09-01T04:19:25;12.60;99.90
50570;DHT22;36525;49.398;7.614;2022-09-01T04:21:54;12.60;99.90
50570;DHT22;36525;49.398;7.614;2022-09-01T04:24:25;12.60;99.90
50570;DHT22;36525;49.398;7.614;2022-09-01T04:26:56;12.60;99.90
50570;DHT22;36525;49.398;7.614;2022-09-01T04:29:25;12.60;99.90
50570;DHT22;36525;49.398;7.614;2022-09-01T04:31:57;12.60;99.90
50570;DHT22;36525;49.398;7.614;2022-09-01T04:34:31;12.70;99.90
50570;DHT22;36525;49.398;7.614;2022-09-01T04:37:11;12.70;99.90
50570;DHT22;36525;49.398;7.614;2022-09-01T04:39:41;12.70;99.90
50570;DHT22;36525;49.398;7.614;2022-09-01T04:42:21;12.80;99.90
50570;DHT22;36525;49.398;7.614;2022-09-01T04:44:51;12.80;99.90
50570;DHT22;36525;49.398;7.614;2022-09-01T04:47:19;12.90;99.90
50570;DHT22;36525;49.398;7.614;2022-09-01T04:50:03;12.90;99.90
50570;DHT22;36525;49.398;7.614;2022-09-01T04:52:40;13.00;99.90
50570;DHT22;36525;49.398;7.614;2022-09-01T04:55:11;13.00;99.90
50570;DHT22;36525;49.398;7.614;2022-09-01T04:57:46;13.10;99.90
50570;DHT22;36525;49.398;7.614;2022-09-01T05:00:20;13.10;99.90
50570;DHT22;36525;49.398;7.614;2022-09-01T05:02:53;13.20;99.90
50570;DHT22;36525;49.398;7.614;2022-09-01T05:05:26;13.20;99.90
50570;DHT22;36525;49.398;7.614;2022-09-01T05:07:53;13.30;99.90
50570;DHT22;36525;49.398;7.614;2022-09-01T05:10:22;13.20;99.90
50570;DHT22;36525;49.398;7.614;2022-09-01T05:12:55;13.30;99.90
50570;DHT22;36525;49.398;7.614;2022-09-01T05:15:22;13.30;99.90
50570;DHT22;36525;49.398;7.614;2022-09-01T05:17:49;13.30;99.90
50570;DHT22;36525;49.398;7.614;2022-09-01T05:20:18;13.40;99.90
50570;DHT22;36525;49.398;7.614;2022-09-01T05:22:46;13.40;99.90
50570;DHT22;36525;49.398;7.614;2022-09-01T05:25:13;13.40;99.90
50570;DHT22;36525;49.398;7.614;2022-09-01T05:27:43;13.40;99.90
50570;DHT22;36525;49.398;7.614;2022-09-01T05:30:18;13.50;99.90
50570;DHT22;36525;49.398;7.614;2022-09-01T05:32:45;13.50;99.90
50570;DHT22;36525;49.398;7.614;2022-09-01T05:35:14;13.60;99.90
50570;DHT22;36525;49.398;7.614;2022-09-01T05:37:42;13.60;99.90
50570;DHT22;36525;49.398;7.614;2022-09-01T05:40:10;13.70;99.90
50570;DHT22;36525;49.398;7.614;2022-09-01T05:42:43;13.70;99.90
50570;DHT22;36525;49.398;7.614;2022-09-01T05:45:10;13.70;99.90
50570;DHT22;36525;49.398;7.614;2022-09-01T05:47:38;13.80;99.90
50570;DHT22;36525;49.398;7.614;2022-09-01T05:50:07;13.80;99.90
50570;DHT22;36525;49.398;7.614;2022-09-01T05:52:39;13.90;99.90
50570;DHT22;36525;49.398;7.614;2022-09-01T05:55:10;13.90;99.90
50570;DHT22;36525;49.398;7.614;2022-09-01T05:57:37;13.90;99.90
50570;DHT22;36525;49.398;7.614;2022-09-01T06:00:07;14.00;99.90
50570;DHT22;36525;49.398;7.614;2022-09-01T06:02:40;14.10;99.90
50570;DHT22;36525;49.398;7.614;2022-09-01T06:05:09;14.20;99.90
50570;DHT22;36525;49.398;7.614;2022-09-01T06:07:37;14.20;99.90
50570;DHT22;36525;49.398;7.614;2022-09-01T06:10:08;14.30;99.90
50570;DHT22;36525;49.398;7.614;2022-09-01T06:12:36;14.50;99.90
50570;DHT22;36525;49.398;7.614;2022-09-01T06:15:06;14.50;99.90
50570;DHT22;36525;49.398;7.614;2022-09-01T06:17:41;14.70;99.90
50570;DHT22;36525;49.398;7.614;2022-09-01T06:20:09;14.70;99.90
50570;DHT22;36525;49.398;7.614;2022-09-01T06:22:36;14.80;99.90
50570;DHT22;36525;49.398;7.614;2022-09-01T06:25:04;14.90;99.90
50570;DHT22;36525;49.398;7.614;2022-09-01T06:27:33;15.00;99.90
50570;DHT22;36525;49.398;7.614;2022-09-01T06:30:05;15.10;99.90
50570;DHT22;36525;49.398;7.614;2022-09-01T06:32:44;15.20;99.90
50570;DHT22;36525;49.398;7.614;2022-09-01T06:35:11;15.30;99.90
50570;DHT22;36525;49.398;7.614;2022-09-01T06:37:42;15.40;99.90
50570;DHT22;36525;49.398;7.614;2022-09-01T06:40:13;15.50;99.90
50570;DHT22;36525;49.398;7.614;2022-09-01T06:42:45;15.50;99.90
50570;DHT22;36525;49.398;7.614;2022-09-01T06:45:14;15.70;99.90
50570;DHT22;36525;49.398;7.614;2022-09-01T06:47:44;15.80;99.90
50570;DHT22;36525;49.398;7.614;2022-09-01T06:50:12;15.80;99.90
50570;DHT22;36525;49.398;7.614;2022-09-01T06:53:01;15.90;99.90
50570;DHT22;36525;49.398;7.614;2022-09-01T06:55:56;16.00;99.90
50570;DHT22;36525;49.398;7.614;2022-09-01T06:58:23;16.20;99.90
50570;DHT22;36525;49.398;7.614;2022-09-01T07:00:51;16.20;99.90
50570;DHT22;36525;49.398;7.614;2022-09-01T07:03:18;16.40;99.90
50570;DHT22;36525;49.398;7.614;2022-09-01T07:05:47;16.50;99.90
50570;DHT22;36525;49.398;7.614;2022-09-01T07:08:28;16.60;99.90
50570;DHT22;36525;49.398;7.614;2022-09-01T07:10:55;16.60;99.90
50570;DHT22;36525;49.398;7.614;2022-09-01T07:13:43;16.60;99.90
50570;DHT22;36525;49.398;7.614;2022-09-01T07:16:34;16.70;99.90
50570;DHT22;36525;49.398;7.614;2022-09-01T07:19:19;16.70;99.90
50570;DHT22;36525;49.398;7.614;2022-09-01T07:21:46;16.80;99.90
50570;DHT22;36525;49.398;7.614;2022-09-01T07:24:32;16.90;99.90
50570;DHT22;36525;49.398;7.614;2022-09-01T07:27:01;17.10;99.90
50570;DHT22;36525;49.398;7.614;2022-09-01T07:29:36;17.30;99.90
50570;DHT22;36525;49.398;7.614;2022-09-01T07:32:07;17.50;99.90
50570;DHT22;36525;49.398;7.614;2022-09-01T07:34:56;17.60;99.90
50570;DHT22;36525;49.398;7.614;2022-09-01T07:37:26;17.80;99.90
50570;DHT22;36525;49.398;7.614;2022-09-01T07:40:15;17.80;99.90
50570;DHT22;36525;49.398;7.614;2022-09-01T07:43:07;17.90;99.90
50570;DHT22;36525;49.398;7.614;2022-09-01T07:45:45;17.90;99.90
50570;DHT22;36525;49.398;7.614;2022-09-01T07:48:26;17.90;99.90
50570;DHT22;36525;49.398;7.614;2022-09-01T07:51:15;18.00;99.90
50570;DHT22;36525;49.398;7.614;2022-09-01T07:54:02;18.00;99.90
50570;DHT22;36525;49.398;7.614;2022-09-01T07:56:30;18.20;99.90
50570;DHT22;36525;49.398;7.614;2022-09-01T07:59:02;18.20;99.90
50570;DHT22;36525;49.398;7.614;2022-09-01T08:01:28;18.40;99.90
50570;DHT22;36525;49.398;7.614;2022-09-01T08:03:58;18.50;99.90
50570;DHT22;36525;49.398;7.614;2022-09-01T08:06:28;18.70;99.90
50570;DHT22;36525;49.398;7.614;2022-09-01T08:09:04;18.80;99.90
50570;DHT22;36525;49.398;7.614;2022-09-01T08:11:40;18.80;99.90
50570;DHT22;36525;49.398;7.614;2022-09-01T08:14:28;18.90;99.90
50570;DHT22;36525;49.398;7.614;2022-09-01T08:16:59;19.20;99.90
50570;DHT22;36525;49.398;7.614;2022-09-01T08:19:42;19.50;99.90
50570;DHT22;36525;49.398;7.614;2022-09-01T08:22:10;19.80;99.90
50570;DHT22;36525;49.398;7.614;2022-09-01T08:24:36;20.20;99.90
50570;DHT22;36525;49.398;7.614;2022-09-01T08:27:03;20.30;99.90
50570;DHT22;36525;49.398;7.614;2022-09-01T08:29:31;20.50;99.90
50570;DHT22;36525;49.398;7.614;2022-09-01T08:31:58;20.90;99.90
50570;DHT22;36525;49.398;7.614;2022-09-01T08:34:25;20.60;99.90
50570;DHT22;36525;49.398;7.614;2022-09-01T08:36:52;20.80;99.90
50570;DHT22;36525;49.398;7.614;2022-09-01T08:39:20;21.10;99.90
50570;DHT22;36525;49.398;7.614;2022-09-01T08:45:29;21.00;99.90
50570;DHT22;36525;49.398;7.614;2022-09-01T08:48:11;20.90;99.90
50570;DHT22;36525;49.398;7.614;2022-09-01T08:51:14;21.00;99.90
50570;DHT22;36525;49.398;7.614;2022-09-01T08:54:51;20.90;99.90
50570;DHT22;36525;49.398;7.614;2022-09-01T08:57:17;21.30;99.90
50570;DHT22;36525;49.398;7.614;2022-09-01T08:59:46;21.50;99.90
50570;DHT22;36525;49.398;7.614;2022-09-01T09:11:32;20.60;99.90
50570;DHT22;36525;49.398;7.614;2022-09-01T09:17:07;20.60;99.90
50570;DHT22;36525;49.398;7.614;2022-09-01T09:19:40;20.80;99.90
50570;DHT22;36525;49.398;7.614;2022-09-01T09:22:12;21.10;99.90
50570;DHT22;36525;49.398;7.614;2022-09-01T09:27:38;20.90;99.90
50570;DHT22;36525;49.398;7.614;2022-09-01T09:30:20;21.10;99.90
50570;DHT22;36525;49.398;7.614;2022-09-01T09:32:57;21.20;99.90
50570;DHT22;36525;49.398;7.614;2022-09-01T09:35:50;21.30;99.90
50570;DHT22;36525;49.398;7.614;2022-09-01T09:38:24;21.40;99.90
50570;DHT22;36525;49.398;7.614;2022-09-01T09:41:05;21.60;99.90
50570;DHT22;36525;49.398;7.614;2022-09-01T09:43:58;22.10;99.90
50570;DHT22;36525;49.398;7.614;2022-09-01T09:49:18;22.30;99.90
50570;DHT22;36525;49.398;7.614;2022-09-01T09:54:39;23.10;99.90
50570;DHT22;36525;49.398;7.614;2022-09-01T10:02:35;24.00;99.90
50570;DHT22;36525;49.398;7.614;2022-09-01T10:08:14;24.20;99.90
50570;DHT22;36525;49.398;7.614;2022-09-01T10:11:06;24.00;99.90
50570;DHT22;36525;49.398;7.614;2022-09-01T10:13:34;24.00;99.90
50570;DHT22;36525;49.398;7.614;2022-09-01T10:16:07;24.00;99.90
50570;DHT22;36525;49.398;7.614;2022-09-01T10:18:40;23.90;99.90
50570;DHT22;36525;49.398;7.614;2022-09-01T10:21:12;23.90;99.90
50570;DHT22;36525;49.398;7.614;2022-09-01T10:23:41;23.50;99.90
50570;DHT22;36525;49.398;7.614;2022-09-01T10:26:15;22.90;99.90
50570;DHT22;36525;49.398;7.614;2022-09-01T10:28:57;22.40;99.90
50570;DHT22;36525;49.398;7.614;2022-09-01T10:31:28;21.90;99.90
50570;DHT22;36525;49.398;7.614;2022-09-01T10:34:01;21.90;99.90
50570;DHT22;36525;49.398;7.614;2022-09-01T10:36:33;21.70;99.90
50570;DHT22;36525;49.398;7.614;2022-09-01T10:39:03;22.10;99.90
50570;DHT22;36525;49.398;7.614;2022-09-01T10:44:28;21.90;99.90
50570;DHT22;36525;49.398;7.614;2022-09-01T10:47:23;21.80;99.90
50570;DHT22;36525;49.398;7.614;2022-09-01T10:53:03;22.00;99.90
50570;DHT22;36525;49.398;7.614;2022-09-01T10:55:44;22.10;99.90
50570;DHT22;36525;49.398;7.614;2022-09-01T10:58:23;22.60;99.90
50570;DHT22;36525;49.398;7.614;2022-09-01T11:01:11;22.60;99.90
50570;DHT22;36525;49.398;7.614;2022-09-01T11:04:00;23.00;99.90
50570;DHT22;36525;49.398;7.614;2022-09-01T11:06:56;23.00;99.90
50570;DHT22;36525;49.398;7.614;2022-09-01T11:15:42;23.40;99.90
50570;DHT22;36525;49.398;7.614;2022-09-01T11:18:16;23.30;99.90
50570;DHT22;36525;49.398;7.614;2022-09-01T11:20:53;23.10;99.90
50570;DHT22;36525;49.398;7.614;2022-09-01T11:23:32;23.60;99.90
50570;DHT22;36525;49.398;7.614;2022-09-01T11:29:00;24.20;99.90
50570;DHT22;36525;49.398;7.614;2022-09-01T11:31:41;24.60;99.90
50570;DHT22;36525;49.398;7.614;2022-09-01T11:34:18;24.60;99.90
50570;DHT22;36525;49.398;7.614;2022-09-01T11:37:14;24.60;99.90
50570;DHT22;36525;49.398;7.614;2022-09-01T11:39:47;24.00;99.90
50570;DHT22;36525;49.398;7.614;2022-09-01T11:42:23;24.40;99.90
50570;DHT22;36525;49.398;7.614;2022-09-01T11:45:17;24.50;99.90
50570;DHT22;36525;49.398;7.614;2022-09-01T11:47:55;24.80;99.90
50570;DHT22;36525;49.398;7.614;2022-09-01T11:50:27;25.00;99.90
50570;DHT22;36525;49.398;7.614;2022-09-01T11:53:02;25.30;99.90
50570;DHT22;36525;49.398;7.614;2022-09-01T11:55:43;24.80;99.90
50570;DHT22;36525;49.398;7.614;2022-09-01T11:58:30;24.30;99.90
50570;DHT22;36525;49.398;7.614;2022-09-01T12:01:30;24.40;99.90
50570;DHT22;36525;49.398;7.614;2022-09-01T12:04:22;24.40;99.90
50570;DHT22;36525;49.398;7.614;2022-09-01T12:07:02;24.40;99.90
50570;DHT22;36525;49.398;7.614;2022-09-01T12:09:42;24.60;99.90
50570;DHT22;36525;49.398;7.614;2022-09-01T12:12:36;24.50;99.90
50570;DHT22;36525;49.398;7.614;2022-09-01T12:15:16;24.30;99.90
50570;DHT22;36525;49.398;7.614;2022-09-01T12:17:48;24.40;99.90
50570;DHT22;36525;49.398;7.614;2022-09-01T12:20:30;24.40;99.90
50570;DHT22;36525;49.398;7.614;2022-09-01T12:23:00;24.30;99.90
50570;DHT22;36525;49.398;7.614;2022-09-01T12:25:30;24.40;99.90
50570;DHT22;36525;49.398;7.614;2022-09-01T12:28:03;24.70;99.90
50570;DHT22;36525;49.398;7.614;2022-09-01T12:30:32;25.00;99.90
50570;DHT22;36525;49.398;7.614;2022-09-01T12:33:02;25.50;99.90
50570;DHT22;36525;49.398;7.614;2022-09-01T12:35:49;25.70;99.90
50570;DHT22;36525;49.398;7.614;2022-09-01T12:40:49;26.30;99.90
50570;DHT22;36525;49.398;7.614;2022-09-01T12:43:34;26.20;99.90
50570;DHT22;36525;49.398;7.614;2022-09-01T12:46:06;25.80;99.90
50570;DHT22;36525;49.398;7.614;2022-09-01T12:48:39;26.10;99.90
50570;DHT22;36525;49.398;7.614;2022-09-01T12:51:19;25.70;99.90
50570;DHT22;36525;49.398;7.614;2022-09-01T12:53:56;25.50;99.90
50570;DHT22;36525;49.398;7.614;2022-09-01T12:56:35;25.10;99.90
50570;DHT22;36525;49.398;7.614;2022-09-01T12:59:11;25.00;99.90
50570;DHT22;36525;49.398;7.614;2022-09-01T13:01:44;24.50;99.90
50570;DHT22;36525;49.398;7.614;2022-09-01T13:06:53;24.30;99.90
50570;DHT22;36525;49.398;7.614;2022-09-01T13:09:25;24.00;99.90
50570;DHT22;36525;49.398;7.614;2022-09-01T13:11:52;24.20;99.90
50570;DHT22;36525;49.398;7.614;2022-09-01T13:14:34;24.30;99.90
50570;DHT22;36525;49.398;7.614;2022-09-01T13:17:02;24.10;99.90
50570;DHT22;36525;49.398;7.614;2022-09-01T13:19:29;24.00;99.90
50570;DHT22;36525;49.398;7.614;2022-09-01T13:21:56;24.00;99.90
50570;DHT22;36525;49.398;7.614;2022-09-01T13:24:23;24.10;99.90
50570;DHT22;36525;49.398;7.614;2022-09-01T13:26:56;24.10;99.90
50570;DHT22;36525;49.398;7.614;2022-09-01T13:29:43;24.20;99.90
50570;DHT22;36525;49.398;7.614;2022-09-01T13:32:11;24.00;99.90
50570;DHT22;36525;49.398;7.614;2022-09-01T13:34:49;24.30;99.90
50570;DHT22;36525;49.398;7.614;2022-09-01T13:37:19;25.80;99.90
50570;DHT22;36525;49.398;7.614;2022-09-01T13:39:47;26.60;99.90
50570;DHT22;36525;49.398;7.614;2022-09-01T13:42:15;26.60;99.90
50570;DHT22;36525;49.398;7.614;2022-09-01T13:44:43;25.40;99.90
50570;DHT22;36525;49.398;7.614;2022-09-01T13:47:12;25.80;99.90
50570;DHT22;36525;49.398;7.614;2022-09-01T13:49:57;26.30;99.90
50570;DHT22;36525;49.398;7.614;2022-09-01T13:52:37;27.20;98.70
50570;DHT22;36525;49.398;7.614;2022-09-01T13:55:06;28.00;97.80
50570;DHT22;36525;49.398;7.614;2022-09-01T13:57:34;28.40;97.80
50570;DHT22;36525;49.398;7.614;2022-09-01T14:00:04;27.90;97.90
50570;DHT22;36525;49.398;7.614;2022-09-01T14:02:38;27.40;98.00
50570;DHT22;36525;49.398;7.614;2022-09-01T14:05:06;27.70;97.40
50570;DHT22;36525;49.398;7.614;2022-09-01T14:07:34;28.20;97.50
50570;DHT22;36525;49.398;7.614;2022-09-01T14:10:01;28.80;96.30
50570;DHT22;36525;49.398;7.614;2022-09-01T14:12:28;30.30;95.30
50570;DHT22;36525;49.398;7.614;2022-09-01T14:14:56;31.00;93.90
50570;DHT22;36525;49.398;7.614;2022-09-01T14:17:44;30.50;92.80
50570;DHT22;36525;49.398;7.614;2022-09-01T14:20:33;29.40;93.80
50570;DHT22;36525;49.398;7.614;2022-09-01T14:23:04;28.90;93.70
50570;DHT22;36525;49.398;7.614;2022-09-01T14:25:32;28.00;94.10
50570;DHT22;36525;49.398;7.614;2022-09-01T14:27:59;28.00;95.00
50570;DHT22;36525;49.398;7.614;2022-09-01T14:30:29;28.60;94.30
50570;DHT22;36525;49.398;7.614;2022-09-01T14:33:01;28.20;94.10
50570;DHT22;36525;49.398;7.614;2022-09-01T14:35:29;28.00;93.90
50570;DHT22;36525;49.398;7.614;2022-09-01T14:37:59;27.80;94.00
50570;DHT22;36525;49.398;7.614;2022-09-01T14:40:27;28.30;94.00
50570;DHT22;36525;49.398;7.614;2022-09-01T14:42:55;29.30;93.10
50570;DHT22;36525;49.398;7.614;2022-09-01T14:45:24;30.60;92.10
50570;DHT22;36525;49.398;7.614;2022-09-01T14:47:56;30.60;91.20
50570;DHT22;36525;49.398;7.614;2022-09-01T14:50:25;30.00;91.60
50570;DHT22;36525;49.398;7.614;2022-09-01T14:52:54;29.50;91.90
50570;DHT22;36525;49.398;7.614;2022-09-01T14:55:23;29.00;91.90
50570;DHT22;36525;49.398;7.614;2022-09-01T14:57:51;28.70;92.60
50570;DHT22;36525;49.398;7.614;2022-09-01T15:00:21;28.20;92.00
50570;DHT22;36525;49.398;7.614;2022-09-01T15:02:51;27.80;92.60
50570;DHT22;36525;49.398;7.614;2022-09-01T15:05:19;27.80;92.80
50570;DHT22;36525;49.398;7.614;2022-09-01T15:07:46;28.50;92.80
50570;DHT22;36525;49.398;7.614;2022-09-01T15:10:16;29.20;92.20
50570;DHT22;36525;49.398;7.614;2022-09-01T15:12:52;29.70;92.30
50570;DHT22;36525;49.398;7.614;2022-09-01T15:15:20;29.80;91.30
50570;DHT22;36525;49.398;7.614;2022-09-01T15:17:48;30.20;91.40
50570;DHT22;36525;49.398;7.614;2022-09-01T15:20:15;30.50;91.40
50570;DHT22;36525;49.398;7.614;2022-09-01T15:23:00;31.00;90.60
50570;DHT22;36525;49.398;7.614;2022-09-01T15:25:28;30.60;90.60
50570;DHT22;36525;49.398;7.614;2022-09-01T15:27:55;30.80;90.70
50570;DHT22;36525;49.398;7.614;2022-09-01T15:30:22;31.30;90.30
50570;DHT22;36525;49.398;7.614;2022-09-01T15:32:51;31.40;88.80
50570;DHT22;36525;49.398;7.614;2022-09-01T15:35:20;31.20;88.20
50570;DHT22;36525;49.398;7.614;2022-09-01T15:37:50;31.50;90.10
50570;DHT22;36525;49.398;7.614;2022-09-01T15:40:18;31.50;86.90
50570;DHT22;36525;49.398;7.614;2022-09-01T15:42:45;31.70;86.80
50570;DHT22;36525;49.398;7.614;2022-09-01T15:45:15;31.70;87.70
50570;DHT22;36525;49.398;7.614;2022-09-01T15:47:45;31.70;87.00
50570;DHT22;36525;49.398;7.614;2022-09-01T15:50:16;31.50;87.30
50570;DHT22;36525;49.398;7.614;2022-09-01T15:52:54;31.80;86.20
50570;DHT22;36525;49.398;7.614;2022-09-01T15:55:37;31.60;85.00
50570;DHT22;36525;49.398;7.614;2022-09-01T15:58:07;31.90;86.30
50570;DHT22;36525;49.398;7.614;2022-09-01T16:00:36;32.40;84.70
50570;DHT22;36525;49.398;7.614;2022-09-01T16:03:04;33.50;84.30
50570;DHT22;36525;49.398;7.614;2022-09-01T16:05:34;33.50;81.40
50570;DHT22;36525;49.398;7.614;2022-09-01T16:08:03;33.50;81.90
50570;DHT22;36525;49.398;7.614;2022-09-01T16:10:35;33.20;82.20
50570;DHT22;36525;49.398;7.614;2022-09-01T16:13:05;32.90;81.90
50570;DHT22;36525;49.398;7.614;2022-09-01T16:15:33;32.90;82.80
50570;DHT22;36525;49.398;7.614;2022-09-01T16:23:50;31.50;83.00
50570;DHT22;36525;49.398;7.614;2022-09-01T16:26:20;31.20;83.70
50570;DHT22;36525;49.398;7.614;2022-09-01T16:28:51;30.50;83.60
50570;DHT22;36525;49.398;7.614;2022-09-01T16:31:27;29.80;84.60
50570;DHT22;36525;49.398;7.614;2022-09-01T16:33:59;29.50;85.40
50570;DHT22;36525;49.398;7.614;2022-09-01T16:44:56;29.70;85.70
50570;DHT22;36525;49.398;7.614;2022-09-01T17:00:08;28.80;86.80
50570;DHT22;36525;49.398;7.614;2022-09-01T17:05:39;28.20;88.60
50570;DHT22;36525;49.398;7.614;2022-09-01T17:08:22;27.80;89.00
50570;DHT22;36525;49.398;7.614;2022-09-01T17:11:06;27.30;89.60
50570;DHT22;36525;49.398;7.614;2022-09-01T17:13:40;27.00;90.00
50570;DHT22;36525;49.398;7.614;2022-09-01T17:18:53;26.40;90.60
50570;DHT22;36525;49.398;7.614;2022-09-01T17:21:34;26.30;91.10
50570;DHT22;36525;49.398;7.614;2022-09-01T17:26:59;25.70;91.30
50570;DHT22;36525;49.398;7.614;2022-09-01T17:29:47;25.40;91.60
50570;DHT22;36525;49.398;7.614;2022-09-01T17:44:00;24.00;93.70
50570;DHT22;36525;49.398;7.614;2022-09-01T17:50:14;23.40;94.70
50570;DHT22;36525;49.398;7.614;2022-09-01T17:59:25;22.70;96.00
50570;DHT22;36525;49.398;7.614;2022-09-01T18:10:40;22.00;97.50
50570;DHT22;36525;49.398;7.614;2022-09-01T18:16:23;21.70;98.90
50570;DHT22;36525;49.398;7.614;2022-09-01T18:18:52;21.60;99.10
50570;DHT22;36525;49.398;7.614;2022-09-01T18:21:24;21.50;98.90
50570;DHT22;36525;49.398;7.614;2022-09-01T18:24:04;21.30;99.00